createdAt,value
2019-03-16T00:00:24.201Z,53.90
2019-03-16T00:02:53.634Z,54.60
2019-03-16T00:05:23.154Z,54.30
2019-03-16T00:07:52.541Z,54.10
2019-03-16T00:10:22.051Z,54.10
2019-03-16T00:12:51.411Z,54.10
2019-03-16T00:15:20.787Z,54.40
2019-03-16T00:17:50.267Z,54.40
2019-03-16T00:20:20.791Z,54.20
2019-03-16T00:22:50.214Z,54.60
2019-03-16T00:25:19.599Z,54.60
2019-03-16T00:27:48.970Z,54.80
2019-03-16T00:30:18.340Z,54.30
2019-03-16T00:32:48.007Z,54.70
2019-03-16T00:35:17.373Z,54.80
2019-03-16T00:37:46.837Z,55.00
2019-03-16T00:40:16.278Z,54.90
2019-03-16T00:42:45.718Z,54.90
2019-03-16T00:45:15.564Z,55.10
2019-03-16T00:47:44.939Z,55.00
2019-03-16T00:50:15.268Z,54.90
2019-03-16T00:52:44.711Z,55.00
2019-03-16T00:55:15.091Z,55.10
2019-03-16T00:57:44.479Z,55.30
2019-03-16T01:00:17.073Z,55.50
2019-03-16T01:02:46.577Z,55.50
2019-03-16T01:05:16.613Z,55.50
2019-03-16T01:07:46.037Z,55.50
2019-03-16T01:10:15.504Z,55.80
2019-03-16T01:12:44.871Z,55.70
2019-03-16T01:15:15.086Z,55.80
2019-03-16T01:17:44.541Z,56.40
2019-03-16T01:20:14.580Z,56.00
2019-03-16T01:22:44.283Z,56.10
2019-03-16T01:25:13.644Z,56.40
2019-03-16T01:27:43.017Z,56.40
2019-03-16T01:30:17.113Z,56.50
2019-03-16T01:32:46.471Z,56.90
2019-03-16T01:35:15.841Z,56.80
2019-03-16T01:37:45.243Z,57.00
2019-03-16T01:40:14.602Z,57.00
2019-03-16T01:42:44.092Z,57.10
2019-03-16T01:45:13.538Z,57.20
2019-03-16T01:47:42.908Z,57.40
2019-03-16T01:50:13.292Z,57.40
2019-03-16T01:52:42.668Z,57.60
2019-03-16T01:55:12.114Z,58.00
2019-03-16T01:57:42.559Z,57.80
2019-03-16T02:00:15.775Z,57.90
2019-03-16T02:02:54.914Z,58.00
2019-03-16T02:05:16.302Z,58.00
2019-03-16T02:07:45.790Z,58.20
2019-03-16T02:10:15.132Z,58.10
2019-03-16T02:12:44.489Z,58.30
2019-03-16T02:15:14.237Z,58.30
2019-03-16T02:17:43.610Z,58.30
2019-03-16T02:20:13.158Z,58.40
2019-03-16T02:22:42.886Z,58.30
2019-03-16T02:25:12.244Z,58.30
2019-03-16T02:27:41.614Z,58.40
2019-03-16T02:30:13.105Z,58.20
2019-03-16T02:32:42.793Z,58.10
2019-03-16T02:35:12.171Z,58.00
2019-03-16T02:37:41.529Z,58.20
2019-03-16T02:40:11.942Z,58.10
2019-03-16T02:42:41.310Z,58.10
2019-03-16T02:45:11.580Z,58.00
2019-03-16T02:47:40.945Z,58.00
2019-03-16T02:50:12.699Z,58.00
2019-03-16T02:52:42.067Z,58.20
2019-03-16T02:55:11.459Z,58.10
2019-03-16T02:57:40.853Z,58.20
2019-03-16T03:00:13.741Z,58.10
2019-03-16T03:02:43.195Z,58.20
2019-03-16T03:05:12.625Z,58.30
2019-03-16T03:07:42.003Z,58.40
2019-03-16T03:10:14.979Z,58.40
2019-03-16T03:12:44.350Z,58.60
2019-03-16T03:15:13.689Z,58.70
2019-03-16T03:17:43.056Z,58.80
2019-03-16T03:20:12.578Z,58.90
2019-03-16T03:22:42.402Z,58.90
2019-03-16T03:25:11.767Z,59.00
2019-03-16T03:27:41.380Z,59.10
2019-03-16T03:30:13.488Z,59.10
2019-03-16T03:32:42.936Z,59.10
2019-03-16T03:35:12.513Z,59.20
2019-03-16T03:37:41.923Z,59.30
2019-03-16T03:40:12.604Z,59.40
2019-03-16T03:42:41.949Z,59.40
2019-03-16T03:45:13.676Z,59.50
2019-03-16T03:47:43.046Z,59.70
2019-03-16T03:50:16.773Z,59.50
2019-03-16T03:52:46.163Z,59.70
2019-03-16T03:55:16.173Z,59.70
2019-03-16T03:57:45.539Z,59.60
2019-03-16T04:00:19.680Z,59.70
2019-03-16T04:02:50.968Z,59.80
2019-03-16T04:05:20.344Z,59.90
2019-03-16T04:07:49.712Z,59.90
2019-03-16T04:10:19.163Z,60.10
2019-03-16T04:12:48.531Z,60.00
2019-03-16T04:15:17.900Z,60.00
2019-03-16T04:17:47.260Z,60.10
2019-03-16T04:20:16.792Z,60.20
2019-03-16T04:22:46.194Z,60.00
2019-03-16T04:25:15.548Z,60.10
2019-03-16T04:27:44.912Z,60.10
2019-03-16T04:30:14.553Z,60.20
2019-03-16T04:32:43.989Z,60.20
2019-03-16T04:35:13.349Z,60.30
2019-03-16T04:37:42.733Z,60.30
2019-03-16T04:40:12.661Z,60.30
2019-03-16T04:42:42.024Z,60.30
2019-03-16T04:45:13.239Z,60.20
2019-03-16T04:47:42.610Z,60.30
2019-03-16T04:50:13.289Z,60.10
2019-03-16T04:52:42.687Z,60.20
2019-03-16T04:55:12.138Z,60.10
2019-03-16T04:57:41.510Z,60.10
2019-03-16T05:00:13.741Z,60.20
2019-03-16T05:02:43.088Z,60.20
2019-03-16T05:05:13.581Z,60.30
2019-03-16T05:07:42.981Z,60.30
2019-03-16T05:10:13.187Z,60.20
2019-03-16T05:12:42.558Z,60.30
2019-03-16T05:15:12.087Z,60.40
2019-03-16T05:17:41.462Z,60.40
2019-03-16T05:20:12.542Z,60.50
2019-03-16T05:22:41.920Z,60.90
2019-03-16T05:25:12.206Z,60.70
2019-03-16T05:27:41.565Z,60.80
2019-03-16T05:30:16.056Z,60.80
2019-03-16T05:32:45.433Z,61.00
2019-03-16T05:35:14.804Z,61.20
2019-03-16T05:37:44.200Z,61.10
2019-03-16T05:40:13.575Z,61.20
2019-03-16T05:42:42.942Z,61.30
2019-03-16T05:45:12.394Z,61.30
2019-03-16T05:47:41.758Z,61.40
2019-03-16T05:50:14.962Z,61.40
2019-03-16T05:52:44.835Z,60.80
2019-03-16T05:55:14.215Z,61.60
2019-03-16T05:57:43.593Z,61.40
2019-03-16T06:00:15.685Z,61.40
2019-03-16T06:02:45.051Z,61.50
2019-03-16T06:05:14.420Z,61.50
2019-03-16T06:07:45.350Z,61.60
2019-03-16T06:10:14.729Z,61.70
2019-03-16T06:12:46.631Z,61.70
2019-03-16T06:15:15.311Z,61.60
2019-03-16T06:17:44.949Z,61.60
2019-03-16T06:20:15.665Z,61.50
2019-03-16T06:22:45.045Z,61.60
2019-03-16T06:25:14.432Z,61.50
2019-03-16T06:27:43.801Z,61.40
2019-03-16T06:30:16.209Z,61.20
2019-03-16T06:32:45.608Z,61.30
2019-03-16T06:35:24.593Z,61.30
2019-03-16T06:37:45.921Z,61.20
2019-03-16T06:40:15.362Z,61.20
2019-03-16T06:42:44.799Z,61.40
2019-03-16T06:45:14.252Z,61.30
2019-03-16T06:47:43.633Z,61.50
2019-03-16T06:50:14.924Z,61.10
2019-03-16T06:52:45.036Z,61.00
2019-03-16T06:55:14.474Z,61.00
2019-03-16T06:57:43.848Z,60.90
2019-03-16T07:00:16.430Z,60.60
2019-03-16T07:02:45.798Z,60.40
2019-03-16T07:05:15.248Z,60.30
2019-03-16T07:07:44.639Z,60.00
2019-03-16T07:10:15.904Z,59.90
2019-03-16T07:12:45.292Z,59.80
2019-03-16T07:15:16.485Z,59.70
2019-03-16T07:17:45.869Z,59.60
2019-03-16T07:20:16.191Z,59.50
2019-03-16T07:22:45.594Z,59.50
2019-03-16T07:25:14.958Z,59.50
2019-03-16T07:27:44.357Z,59.40
2019-03-16T07:30:15.360Z,59.20
2019-03-16T07:32:44.776Z,59.10
2019-03-16T07:35:14.122Z,58.90
2019-03-16T07:37:44.542Z,58.80
2019-03-16T07:40:15.559Z,58.80
2019-03-16T07:42:44.941Z,58.40
2019-03-16T07:45:14.845Z,58.20
2019-03-16T07:47:44.237Z,58.50
2019-03-16T07:50:14.770Z,58.20
2019-03-16T07:52:44.147Z,58.30
2019-03-16T07:55:13.526Z,58.30
2019-03-16T07:57:42.904Z,58.40
2019-03-16T08:00:13.568Z,58.50
2019-03-16T08:02:42.937Z,58.50
2019-03-16T08:05:18.735Z,58.50
2019-03-16T08:07:43.756Z,58.00
2019-03-16T08:10:13.676Z,58.00
2019-03-16T08:12:44.362Z,57.70
2019-03-16T08:15:14.389Z,57.90
2019-03-16T08:17:43.796Z,57.80
2019-03-16T08:20:13.711Z,57.60
2019-03-16T08:22:43.107Z,57.60
2019-03-16T08:25:12.480Z,57.50
2019-03-16T08:27:53.635Z,57.60
2019-03-16T08:30:13.259Z,57.50
2019-03-16T08:32:42.639Z,57.20
2019-03-16T08:35:12.273Z,57.10
2019-03-16T08:37:41.755Z,56.50
2019-03-16T08:40:12.477Z,56.40
2019-03-16T08:42:41.850Z,56.20
2019-03-16T08:45:12.001Z,56.10
2019-03-16T08:47:41.377Z,56.00
2019-03-16T08:50:12.255Z,55.80
2019-03-16T08:52:41.639Z,55.40
2019-03-16T08:55:11.519Z,56.00
2019-03-16T08:57:40.978Z,55.50
2019-03-16T09:00:13.278Z,55.20
2019-03-16T09:02:42.648Z,55.70
2019-03-16T09:05:12.031Z,55.50
2019-03-16T09:07:41.428Z,55.40
2019-03-16T09:10:11.317Z,55.70
2019-03-16T09:12:40.708Z,55.50
2019-03-16T09:15:37.994Z,55.50
2019-03-16T09:18:07.378Z,55.00
2019-03-16T09:20:36.757Z,54.80
2019-03-16T09:23:06.149Z,54.00
2019-03-16T09:25:35.599Z,53.60
2019-03-16T09:28:04.977Z,54.00
2019-03-16T09:30:34.377Z,53.60
2019-03-16T09:33:04.074Z,53.60
2019-03-16T09:35:33.473Z,53.80
2019-03-16T09:38:05.187Z,53.70
2019-03-16T09:40:33.984Z,53.30
2019-03-16T09:43:03.356Z,53.40
2019-03-16T09:45:32.746Z,53.50
2019-03-16T09:48:02.193Z,53.70
2019-03-16T09:50:31.567Z,54.00
2019-03-16T09:53:00.972Z,53.70
2019-03-16T09:55:30.348Z,53.70
2019-03-16T09:57:59.801Z,53.30
2019-03-16T10:00:29.229Z,53.20
2019-03-16T10:02:58.585Z,52.70
2019-03-16T10:05:27.964Z,52.40
2019-03-16T10:07:57.363Z,52.60
2019-03-16T10:10:26.749Z,51.90
2019-03-16T10:12:56.124Z,52.20
2019-03-16T10:15:25.516Z,51.20
2019-03-16T10:17:55.155Z,51.70
2019-03-16T10:20:24.462Z,51.80
2019-03-16T10:22:53.877Z,51.70
2019-03-16T10:25:23.244Z,51.80
2019-03-16T10:27:52.613Z,52.00
2019-03-16T10:30:22.029Z,51.40
2019-03-16T10:32:53.009Z,51.20
2019-03-16T10:35:22.399Z,50.50
2019-03-16T10:37:51.803Z,51.10
2019-03-16T10:40:21.174Z,51.10
2019-03-16T10:42:50.542Z,51.10
2019-03-16T10:45:20.322Z,50.80
2019-03-16T10:47:49.703Z,50.50
2019-03-16T10:50:19.078Z,50.80
2019-03-16T10:52:48.463Z,50.20
2019-03-16T10:55:17.837Z,50.30
2019-03-16T10:57:47.214Z,50.30
2019-03-16T11:00:17.956Z,49.40
2019-03-16T11:02:47.317Z,49.70
2019-03-16T11:05:16.856Z,49.80
2019-03-16T11:07:46.286Z,49.90
2019-03-16T11:10:15.826Z,49.40
2019-03-16T11:12:45.199Z,49.40
2019-03-16T11:15:15.279Z,48.50
2019-03-16T11:17:44.667Z,48.80
2019-03-16T11:20:18.988Z,48.20
2019-03-16T11:22:48.479Z,48.50
2019-03-16T11:25:17.856Z,48.90
2019-03-16T11:27:47.228Z,48.70
2019-03-16T11:30:18.329Z,49.00
2019-03-16T11:32:47.697Z,49.40
2019-03-16T11:35:17.076Z,49.70
2019-03-16T11:37:46.478Z,49.70
2019-03-16T11:40:39.661Z,49.60
2019-03-16T11:43:09.259Z,49.80
2019-03-16T11:45:38.638Z,49.70
2019-03-16T11:48:08.036Z,50.10
2019-03-16T11:50:37.406Z,49.50
2019-03-16T11:53:06.769Z,49.70
2019-03-16T11:55:36.397Z,49.70
2019-03-16T11:58:05.798Z,49.80
2019-03-16T12:00:35.174Z,49.80
2019-03-16T12:03:04.621Z,50.00
2019-03-16T12:05:34.502Z,50.00
2019-03-16T12:08:03.879Z,50.50
2019-03-16T12:10:33.247Z,50.70
2019-03-16T12:13:02.650Z,51.00
2019-03-16T12:15:32.019Z,51.30
2019-03-16T12:18:01.390Z,51.30
2019-03-16T12:20:30.789Z,51.40
2019-03-16T12:23:00.910Z,52.00
2019-03-16T12:25:30.608Z,52.40
2019-03-16T12:28:00.168Z,53.00
2019-03-16T12:30:29.736Z,53.60
2019-03-16T12:33:00.258Z,54.40
2019-03-16T12:35:29.663Z,54.80
2019-03-16T12:38:00.087Z,55.20
2019-03-16T12:40:29.480Z,55.40
2019-03-16T12:43:02.108Z,55.20
2019-03-16T12:45:31.475Z,55.50
2019-03-16T12:48:00.868Z,55.80
2019-03-16T12:50:30.241Z,56.00
2019-03-16T12:53:00.818Z,56.60
2019-03-16T12:55:30.370Z,57.20
2019-03-16T12:58:19.352Z,57.30
2019-03-16T13:00:50.902Z,58.10
2019-03-16T13:03:20.302Z,58.20
2019-03-16T13:05:49.750Z,58.40
2019-03-16T13:08:19.286Z,58.90
2019-03-16T13:10:48.678Z,59.10
2019-03-16T13:13:18.208Z,59.30
2019-03-16T13:15:47.580Z,59.50
2019-03-16T13:18:17.002Z,59.80
2019-03-16T13:20:46.381Z,60.20
2019-03-16T13:23:15.780Z,61.00
2019-03-16T13:25:45.339Z,60.90
2019-03-16T13:28:14.709Z,61.00
2019-03-16T13:30:44.097Z,61.30
2019-03-16T13:33:13.475Z,61.00
2019-03-16T13:35:44.052Z,61.20
2019-03-16T13:38:13.431Z,61.30
2019-03-16T13:40:43.207Z,61.30
2019-03-16T13:43:13.505Z,61.50
2019-03-16T13:45:42.884Z,61.90
2019-03-16T13:48:12.273Z,62.00
2019-03-16T13:50:41.651Z,62.10
2019-03-16T13:53:11.398Z,62.50
2019-03-16T13:55:40.780Z,63.30
2019-03-16T13:58:10.152Z,62.80
2019-03-16T14:00:39.528Z,63.30
2019-03-16T14:03:09.669Z,63.40
2019-03-16T14:05:38.243Z,63.30
2019-03-16T14:08:07.642Z,63.90
2019-03-16T14:10:37.890Z,65.00
2019-03-16T14:13:07.623Z,64.70
2019-03-16T14:15:37.002Z,64.00
2019-03-16T14:18:06.453Z,64.10
2019-03-16T14:20:35.926Z,64.10
2019-03-16T14:23:05.475Z,64.50
2019-03-16T14:25:35.058Z,65.00
2019-03-16T14:28:04.525Z,65.00
2019-03-16T14:30:41.071Z,65.50
2019-03-16T14:33:05.250Z,65.30
2019-03-16T14:35:34.633Z,66.00
2019-03-16T14:38:03.836Z,65.90
2019-03-16T14:40:33.269Z,66.50
2019-03-16T14:43:02.592Z,66.60
2019-03-16T14:45:32.591Z,67.50
2019-03-16T14:48:02.010Z,67.20
2019-03-16T14:50:31.379Z,67.50
2019-03-16T14:53:00.748Z,68.00
2019-03-16T14:55:30.330Z,68.40
2019-03-16T14:57:59.715Z,67.90
2019-03-16T15:00:38.208Z,67.70
2019-03-16T15:03:00.205Z,68.00
2019-03-16T15:05:29.579Z,69.60
2019-03-16T15:07:58.955Z,69.00
2019-03-16T15:10:28.477Z,69.20
2019-03-16T15:12:58.203Z,69.90
2019-03-16T15:15:27.868Z,70.60
2019-03-16T15:17:57.739Z,71.10
2019-03-16T15:20:27.245Z,71.50
2019-03-16T15:22:56.606Z,71.70
2019-03-16T15:25:26.025Z,71.90
2019-03-16T15:27:55.692Z,71.90
2019-03-16T15:30:25.067Z,72.50
2019-03-16T15:32:54.967Z,72.40
2019-03-16T15:35:24.346Z,72.60
2019-03-16T15:37:53.708Z,73.10
2019-03-16T15:40:23.093Z,73.70
2019-03-16T15:42:52.465Z,74.00
2019-03-16T15:45:24.847Z,74.40
2019-03-16T15:47:54.236Z,74.30
2019-03-16T15:50:23.623Z,74.60
2019-03-16T15:52:52.989Z,74.40
2019-03-16T15:55:22.702Z,75.30
2019-03-16T15:57:52.111Z,76.20
2019-03-16T16:00:21.503Z,75.90
2019-03-16T16:02:50.883Z,76.60
2019-03-16T16:05:20.323Z,76.90
2019-03-16T16:07:49.698Z,77.00
2019-03-16T16:10:20.119Z,77.40
2019-03-16T16:12:49.498Z,77.20
2019-03-16T16:15:18.856Z,77.20
2019-03-16T16:17:49.094Z,77.20
2019-03-16T16:20:21.558Z,78.00
2019-03-16T16:22:50.937Z,78.10
2019-03-16T16:25:20.310Z,78.90
2019-03-16T16:27:50.007Z,79.00
2019-03-16T16:30:21.751Z,79.30
2019-03-16T16:32:51.586Z,79.20
2019-03-16T16:35:20.962Z,79.80
2019-03-16T16:37:50.321Z,79.80
2019-03-16T16:40:20.800Z,80.10
2019-03-16T16:42:50.174Z,80.00
2019-03-16T16:45:19.538Z,80.10
2019-03-16T16:47:48.908Z,80.70
2019-03-16T16:50:20.791Z,80.90
2019-03-16T16:52:50.563Z,81.10
2019-03-16T16:55:20.399Z,81.20
2019-03-16T16:57:49.757Z,81.50
2019-03-16T17:00:27.535Z,81.50
2019-03-16T17:02:56.900Z,81.90
2019-03-16T17:05:26.281Z,81.90
2019-03-16T17:07:55.658Z,82.00
2019-03-16T17:10:25.030Z,82.20
2019-03-16T17:12:54.391Z,82.40
2019-03-16T17:15:25.927Z,82.70
2019-03-16T17:17:55.294Z,82.80
2019-03-16T17:20:24.966Z,83.20
2019-03-16T17:22:54.348Z,83.00
2019-03-16T17:25:23.722Z,83.00
2019-03-16T17:27:54.488Z,83.10
2019-03-16T17:30:30.381Z,83.40
2019-03-16T17:32:59.754Z,83.60
2019-03-16T17:35:29.133Z,83.50
2019-03-16T17:37:58.570Z,83.90
2019-03-16T17:40:28.033Z,84.00
2019-03-16T17:42:57.401Z,84.20
2019-03-16T17:45:26.882Z,84.40
2019-03-16T17:47:56.287Z,84.60
2019-03-16T17:50:25.652Z,84.50
2019-03-16T17:52:55.055Z,84.80
2019-03-16T17:55:24.424Z,84.90
2019-03-16T17:57:53.872Z,85.00
2019-03-16T18:00:23.263Z,84.70
2019-03-16T18:02:52.848Z,85.10
2019-03-16T18:05:22.366Z,85.30
2019-03-16T18:07:51.755Z,85.30
2019-03-16T18:10:21.121Z,85.90
2019-03-16T18:12:50.533Z,85.60
2019-03-16T18:15:22.099Z,85.40
2019-03-16T18:17:51.460Z,85.60
2019-03-16T18:20:20.906Z,85.40
2019-03-16T18:22:51.454Z,85.30
2019-03-16T18:25:20.828Z,85.60
2019-03-16T18:27:50.252Z,85.60
2019-03-16T18:30:25.032Z,85.60
2019-03-16T18:32:54.397Z,85.70
2019-03-16T18:35:23.763Z,86.00
2019-03-16T18:37:53.154Z,86.10
2019-03-16T18:40:22.551Z,86.20
2019-03-16T18:42:52.153Z,86.20
2019-03-16T18:45:35.509Z,86.30
2019-03-16T18:48:04.885Z,86.30
2019-03-16T18:50:34.267Z,86.40
2019-03-16T18:53:03.653Z,86.40
2019-03-16T18:55:33.025Z,86.50
2019-03-16T18:58:02.400Z,86.70
2019-03-16T19:00:31.807Z,86.80
2019-03-16T19:03:01.189Z,86.60
2019-03-16T19:05:30.568Z,86.80
2019-03-16T19:08:01.166Z,86.80
2019-03-16T19:10:30.576Z,86.80
2019-03-16T19:13:00.999Z,86.80
2019-03-16T19:15:30.380Z,86.80
2019-03-16T19:18:00.782Z,86.90
2019-03-16T19:20:30.155Z,86.80
2019-03-16T19:23:01.119Z,87.10
2019-03-16T19:25:30.584Z,86.80
2019-03-16T19:27:59.962Z,87.00
2019-03-16T19:30:29.376Z,87.00
2019-03-16T19:32:58.806Z,87.10
2019-03-16T19:35:28.127Z,87.10
2019-03-16T19:37:57.952Z,87.10
2019-03-16T19:40:27.444Z,87.00
2019-03-16T19:42:56.854Z,86.90
2019-03-16T19:45:26.248Z,87.10
2019-03-16T19:47:55.769Z,86.90
2019-03-16T19:50:25.226Z,87.00
2019-03-16T19:52:55.233Z,87.00
2019-03-16T19:55:24.622Z,87.00
2019-03-16T19:57:56.049Z,86.90
2019-03-16T20:00:25.430Z,87.00
2019-03-16T20:02:55.018Z,87.10
2019-03-16T20:05:24.563Z,87.10
2019-03-16T20:07:53.979Z,87.20
2019-03-16T20:10:23.516Z,87.10
2019-03-16T20:12:53.606Z,87.10
2019-03-16T20:15:23.132Z,87.10
2019-03-16T20:17:52.598Z,86.80
2019-03-16T20:20:22.000Z,87.10
2019-03-16T20:22:51.518Z,87.00
2019-03-16T20:25:22.343Z,87.10
2019-03-16T20:27:52.884Z,87.20
2019-03-16T20:30:26.904Z,87.20
2019-03-16T20:33:03.202Z,87.10
2019-03-16T20:35:24.517Z,87.10
2019-03-16T20:37:54.241Z,87.00
2019-03-16T20:40:23.694Z,87.10
2019-03-16T20:42:53.038Z,87.30
2019-03-16T20:45:22.487Z,87.10
2019-03-16T20:47:51.954Z,87.10
2019-03-16T20:50:21.692Z,87.30
2019-03-16T20:52:51.113Z,87.30
2019-03-16T20:55:21.626Z,87.30
2019-03-16T20:57:50.989Z,87.20
2019-03-16T21:00:21.390Z,87.40
2019-03-16T21:02:50.753Z,87.50
2019-03-16T21:05:20.294Z,87.50
2019-03-16T21:07:50.605Z,87.50
2019-03-16T21:10:21.113Z,87.50
2019-03-16T21:12:50.481Z,87.60
2019-03-16T21:15:20.288Z,87.70
2019-03-16T21:17:49.656Z,87.80
2019-03-16T21:20:20.273Z,87.70
2019-03-16T21:22:50.012Z,87.60
2019-03-16T21:25:19.389Z,87.60
2019-03-16T21:27:49.326Z,87.60
2019-03-16T21:30:21.459Z,87.70
2019-03-16T21:32:50.905Z,87.40
2019-03-16T21:35:20.428Z,87.40
2019-03-16T21:37:49.801Z,87.10
2019-03-16T21:40:19.272Z,87.10
2019-03-16T21:42:48.604Z,86.90
2019-03-16T21:45:18.011Z,86.80
2019-03-16T21:47:59.174Z,86.60
2019-03-16T21:50:18.464Z,86.60
2019-03-16T21:52:47.841Z,86.70
2019-03-16T21:55:17.210Z,86.60
2019-03-16T21:57:46.577Z,86.40
2019-03-16T22:00:18.239Z,86.30
2019-03-16T22:02:47.767Z,86.20
2019-03-16T22:05:17.148Z,86.20
2019-03-16T22:07:46.548Z,86.30
2019-03-16T22:10:19.011Z,86.20
2019-03-16T22:12:48.389Z,86.10
2019-03-16T22:15:18.136Z,86.00
2019-03-16T22:17:47.497Z,85.90
2019-03-16T22:20:22.069Z,85.60
2019-03-16T22:22:51.957Z,85.30
2019-03-16T22:25:21.324Z,85.80
2019-03-16T22:27:51.866Z,85.00
2019-03-16T22:30:21.793Z,84.70
2019-03-16T22:32:51.162Z,84.40
2019-03-16T22:35:20.530Z,84.00
2019-03-16T22:37:49.913Z,84.00
2019-03-16T22:40:19.283Z,83.90
2019-03-16T22:42:48.662Z,83.50
2019-03-16T22:45:18.432Z,83.20
2019-03-16T22:47:48.724Z,83.00
2019-03-16T22:50:20.358Z,82.70
2019-03-16T22:52:50.149Z,82.50
2019-03-16T22:55:19.506Z,82.50
2019-03-16T22:57:48.872Z,82.10
2019-03-16T23:00:26.242Z,82.20
2019-03-16T23:02:55.603Z,82.20
2019-03-16T23:05:24.970Z,81.80
2019-03-16T23:07:54.342Z,81.50
2019-03-16T23:10:23.709Z,81.20
2019-03-16T23:12:53.100Z,80.90
2019-03-16T23:15:22.558Z,80.70
2019-03-16T23:17:52.929Z,80.60
2019-03-16T23:20:22.344Z,80.30
2019-03-16T23:22:52.070Z,80.20
2019-03-16T23:25:21.432Z,80.00
2019-03-16T23:27:50.854Z,79.80
2019-03-16T23:30:20.256Z,79.80
2019-03-16T23:32:50.284Z,79.80
2019-03-16T23:35:19.707Z,79.60
2019-03-16T23:37:49.095Z,79.70
2019-03-16T23:40:18.464Z,79.50
2019-03-16T23:42:47.825Z,79.20
2019-03-16T23:45:17.272Z,79.10
2019-03-16T23:47:46.646Z,78.90
2019-03-16T23:50:18.020Z,78.90
2019-03-16T23:52:47.395Z,78.90
2019-03-16T23:55:16.765Z,78.50
2019-03-16T23:57:46.131Z,78.40
